Asian Empire — 3FQF8 — position and weather

sailwx.info

Track history (hours):
 
Tides and Currents Weather Stations Pressure Air Temp Water Temp Dewpoint Dewpoint Depression Visibility Wind Speed Wind Dir Waves Ship Positions

Asian Empire

Last reported at 2016-Nov-21 21:33 UTC. Time now 2016-Dec-03 04:41 UTC.
Position N 36°20' E 013°51'.
Warning: this ship's position is 11 days out of date.

Length 229 m; draft 8.2 m.

Type: Cargo ship. MMSI: 245087096.

Date/timePositionNaut miles runAvg speedWind from/ knotsBaromVisibWave heightAir tempDewpointWater temp
2016-Nov-21 21:33N 36°20' E 013°51'4310.6
2016-Nov-21 17:33N 35°58' E 014°36'9 2.8
2016-Nov-21 14:28N 35°53' E 014°45'0 0.0
2016-Nov-21 13:31N 35°53' E 014°45'0 0.0
2016-Nov-21 12:31N 35°53' E 014°45'0 0.0
2016-Nov-21 11:34N 35°53' E 014°45'0 0.0
2016-Nov-21 10:15N 35°53' E 014°45'0 0.0
2016-Nov-21 08:30N 35°53' E 014°45'5 4.0
2016-Nov-21 07:12N 35°56' E 014°50'1 0.6
2016-Nov-21 05:28N 35°56' E 014°51'0 0.0
2016-Nov-21 04:13N 35°56' E 014°51'0 0.0
2016-Nov-21 02:25N 35°56' E 014°51'0 0.0
2016-Nov-21 00:19N 35°56' E 014°51'0 0.0
2016-Nov-20 22:31N 35°56' E 014°51'0 0.0
2016-Nov-20 21:31N 35°56' E 014°51'0 0.0
2016-Nov-20 17:31N 35°56' E 014°51'0 0.0
2016-Nov-20 16:31N 35°56' E 014°51'0 0.0
2016-Nov-20 12:25N 35°56' E 014°51'  
Track history (hours):
 
Tides and Currents Weather Stations Pressure Air Temp Water Temp Dewpoint Dewpoint Depression Visibility Wind Speed Wind Dir Waves Ship Positions

Asian Empire

Last reported at 2016-Nov-21 21:33 UTC. Time now 2016-Dec-03 04:41 UTC.
Position N 36°20' E 013°51'.
Warning: this ship's position is 11 days out of date.

Length 229 m; draft 8.2 m.

Type: Cargo ship. MMSI: 245087096.

Date/timePositionNaut miles runAvg speedWind from/ knotsBaromVisibWave heightAir tempDewpointWater temp
2016-Nov-21 21:33N 36°20' E 013°51'4310.6
2016-Nov-21 17:33N 35°58' E 014°36'9 2.8
2016-Nov-21 14:28N 35°53' E 014°45'0 0.0
2016-Nov-21 13:31N 35°53' E 014°45'0 0.0
2016-Nov-21 12:31N 35°53' E 014°45'0 0.0
2016-Nov-21 11:34N 35°53' E 014°45'0 0.0
2016-Nov-21 10:15N 35°53' E 014°45'0 0.0
2016-Nov-21 08:30N 35°53' E 014°45'5 4.0
2016-Nov-21 07:12N 35°56' E 014°50'1 0.6
2016-Nov-21 05:28N 35°56' E 014°51'0 0.0
2016-Nov-21 04:13N 35°56' E 014°51'0 0.0
2016-Nov-21 02:25N 35°56' E 014°51'0 0.0
2016-Nov-21 00:19N 35°56' E 014°51'0 0.0
2016-Nov-20 22:31N 35°56' E 014°51'0 0.0
2016-Nov-20 21:31N 35°56' E 014°51'0 0.0
2016-Nov-20 17:31N 35°56' E 014°51'0 0.0
2016-Nov-20 16:31N 35°56' E 014°51'0 0.0
2016-Nov-20 12:25N 35°56' E 014°51'  

Dump ship's entire track history